sensor_id;sensor_type;location;lat;lon;timestamp;P1;durP1;ratioP1;P2;durP2;ratioP2
71413;SDS011;59226;53.212;5.728;2022-09-03T00:07:34;2.53;;;0.45;;
71413;SDS011;59226;53.212;5.728;2022-09-03T00:10:04;1.38;;;0.50;;
71413;SDS011;59226;53.212;5.728;2022-09-03T00:12:33;1.30;;;0.47;;
71413;SDS011;59226;53.212;5.728;2022-09-03T00:15:02;0.83;;;0.53;;
71413;SDS011;59226;53.212;5.728;2022-09-03T00:17:45;0.93;;;0.45;;
71413;SDS011;59226;53.212;5.728;2022-09-03T00:20:17;1.23;;;0.50;;
71413;SDS011;59226;53.212;5.728;2022-09-03T00:22:47;0.95;;;0.40;;
71413;SDS011;59226;53.212;5.728;2022-09-03T00:25:18;1.40;;;0.50;;
71413;SDS011;59226;53.212;5.728;2022-09-03T00:27:44;0.73;;;0.40;;
71413;SDS011;59226;53.212;5.728;2022-09-03T00:30:15;3.78;;;0.50;;
71413;SDS011;59226;53.212;5.728;2022-09-03T00:32:46;1.05;;;0.40;;
71413;SDS011;59226;53.212;5.728;2022-09-03T00:35:33;0.95;;;0.40;;
71413;SDS011;59226;53.212;5.728;2022-09-03T00:37:57;0.60;;;0.40;;
71413;SDS011;59226;53.212;5.728;2022-09-03T00:48:45;1.30;;;0.50;;
71413;SDS011;59226;53.212;5.728;2022-09-03T00:51:20;0.52;;;0.30;;
71413;SDS011;59226;53.212;5.728;2022-09-03T00:53:56;2.83;;;0.40;;
71413;SDS011;59226;53.212;5.728;2022-09-03T00:59:24;1.20;;;0.50;;
71413;SDS011;59226;53.212;5.728;2022-09-03T01:06:52;0.57;;;0.30;;
71413;SDS011;59226;53.212;5.728;2022-09-03T01:09:31;0.93;;;0.60;;
71413;SDS011;59226;53.212;5.728;2022-09-03T01:17:05;1.57;;;0.57;;
71413;SDS011;59226;53.212;5.728;2022-09-03T01:24:57;0.75;;;0.47;;
71413;SDS011;59226;53.212;5.728;2022-09-03T01:34:53;0.43;;;0.30;;
71413;SDS011;59226;53.212;5.728;2022-09-03T01:39:54;3.00;;;0.52;;
71413;SDS011;59226;53.212;5.728;2022-09-03T01:42:37;0.50;;;0.23;;
71413;SDS011;59226;53.212;5.728;2022-09-03T01:52:54;0.68;;;0.45;;
71413;SDS011;59226;53.212;5.728;2022-09-03T01:58:15;0.85;;;0.40;;
71413;SDS011;59226;53.212;5.728;2022-09-03T02:00:44;0.82;;;0.30;;
71413;SDS011;59226;53.212;5.728;2022-09-03T02:03:13;1.25;;;0.40;;
71413;SDS011;59226;53.212;5.728;2022-09-03T02:05:38;1.90;;;0.40;;
71413;SDS011;59226;53.212;5.728;2022-09-03T02:08:07;0.70;;;0.30;;
71413;SDS011;59226;53.212;5.728;2022-09-03T02:10:43;1.58;;;0.40;;
71413;SDS011;59226;53.212;5.728;2022-09-03T02:13:14;1.05;;;0.30;;
71413;SDS011;59226;53.212;5.728;2022-09-03T02:15:41;0.90;;;0.30;;
71413;SDS011;59226;53.212;5.728;2022-09-03T02:18:09;0.60;;;0.43;;
71413;SDS011;59226;53.212;5.728;2022-09-03T02:20:35;0.85;;;0.40;;
71413;SDS011;59226;53.212;5.728;2022-09-03T02:23:01;1.55;;;0.50;;
71413;SDS011;59226;53.212;5.728;2022-09-03T02:25:31;0.97;;;0.50;;
71413;SDS011;59226;53.212;5.728;2022-09-03T02:27:58;1.00;;;0.30;;
71413;SDS011;59226;53.212;5.728;2022-09-03T02:30:24;2.00;;;0.43;;
71413;SDS011;59226;53.212;5.728;2022-09-03T02:32:50;0.80;;;0.35;;
71413;SDS011;59226;53.212;5.728;2022-09-03T02:35:15;0.87;;;0.30;;
71413;SDS011;59226;53.212;5.728;2022-09-03T02:37:40;1.57;;;0.53;;
71413;SDS011;59226;53.212;5.728;2022-09-03T02:40:06;1.33;;;1.03;;
71413;SDS011;59226;53.212;5.728;2022-09-03T02:42:34;0.50;;;0.30;;
71413;SDS011;59226;53.212;5.728;2022-09-03T02:45:01;1.13;;;0.63;;
71413;SDS011;59226;53.212;5.728;2022-09-03T02:47:28;0.80;;;0.40;;
71413;SDS011;59226;53.212;5.728;2022-09-03T02:49:55;0.93;;;0.40;;
71413;SDS011;59226;53.212;5.728;2022-09-03T02:52:20;0.57;;;0.23;;
71413;SDS011;59226;53.212;5.728;2022-09-03T02:54:45;0.73;;;0.30;;
71413;SDS011;59226;53.212;5.728;2022-09-03T02:57:12;0.60;;;0.30;;
71413;SDS011;59226;53.212;5.728;2022-09-03T02:59:38;0.67;;;0.30;;
71413;SDS011;59226;53.212;5.728;2022-09-03T03:02:04;1.30;;;0.40;;
71413;SDS011;59226;53.212;5.728;2022-09-03T03:04:29;0.67;;;0.30;;
71413;SDS011;59226;53.212;5.728;2022-09-03T03:06:55;0.77;;;0.30;;
71413;SDS011;59226;53.212;5.728;2022-09-03T03:09:20;1.23;;;0.50;;
71413;SDS011;59226;53.212;5.728;2022-09-03T03:11:45;1.33;;;0.60;;
71413;SDS011;59226;53.212;5.728;2022-09-03T03:14:10;0.97;;;0.40;;
71413;SDS011;59226;53.212;5.728;2022-09-03T03:16:36;0.50;;;0.30;;
71413;SDS011;59226;53.212;5.728;2022-09-03T03:19:01;0.80;;;0.40;;
71413;SDS011;59226;53.212;5.728;2022-09-03T03:21:26;1.27;;;0.60;;
71413;SDS011;59226;53.212;5.728;2022-09-03T03:23:52;3.80;;;0.53;;
71413;SDS011;59226;53.212;5.728;2022-09-03T03:26:17;0.90;;;0.33;;
71413;SDS011;59226;53.212;5.728;2022-09-03T03:28:43;2.42;;;0.50;;
71413;SDS011;59226;53.212;5.728;2022-09-03T03:31:14;4.63;;;0.75;;
71413;SDS011;59226;53.212;5.728;2022-09-03T03:33:40;1.02;;;0.38;;
71413;SDS011;59226;53.212;5.728;2022-09-03T03:36:06;0.40;;;0.30;;
71413;SDS011;59226;53.212;5.728;2022-09-03T03:38:31;1.13;;;0.38;;
71413;SDS011;59226;53.212;5.728;2022-09-03T03:40:57;0.90;;;0.40;;
71413;SDS011;59226;53.212;5.728;2022-09-03T03:43:22;0.80;;;0.40;;
71413;SDS011;59226;53.212;5.728;2022-09-03T03:45:57;7.00;;;0.40;;
71413;SDS011;59226;53.212;5.728;2022-09-03T03:48:23;1.15;;;0.35;;
71413;SDS011;59226;53.212;5.728;2022-09-03T03:50:48;1.03;;;0.30;;
71413;SDS011;59226;53.212;5.728;2022-09-03T03:53:13;0.90;;;0.40;;
71413;SDS011;59226;53.212;5.728;2022-09-03T03:55:38;1.47;;;0.30;;
71413;SDS011;59226;53.212;5.728;2022-09-03T03:58:04;2.00;;;0.33;;
71413;SDS011;59226;53.212;5.728;2022-09-03T04:00:29;0.70;;;0.37;;
71413;SDS011;59226;53.212;5.728;2022-09-03T04:02:54;0.30;;;0.20;;
71413;SDS011;59226;53.212;5.728;2022-09-03T04:05:19;8.00;;;0.90;;
71413;SDS011;59226;53.212;5.728;2022-09-03T04:07:44;0.63;;;0.30;;
71413;SDS011;59226;53.212;5.728;2022-09-03T04:10:10;1.23;;;0.50;;
71413;SDS011;59226;53.212;5.728;2022-09-03T04:12:35;0.93;;;0.30;;
71413;SDS011;59226;53.212;5.728;2022-09-03T04:15:01;1.02;;;0.45;;
71413;SDS011;59226;53.212;5.728;2022-09-03T04:17:27;1.27;;;0.33;;
71413;SDS011;59226;53.212;5.728;2022-09-03T04:19:52;2.60;;;0.50;;
71413;SDS011;59226;53.212;5.728;2022-09-03T04:22:17;1.10;;;0.60;;
71413;SDS011;59226;53.212;5.728;2022-09-03T04:24:44;1.13;;;0.47;;
71413;SDS011;59226;53.212;5.728;2022-09-03T04:27:09;1.43;;;0.43;;
71413;SDS011;59226;53.212;5.728;2022-09-03T04:29:34;7.27;;;0.30;;
71413;SDS011;59226;53.212;5.728;2022-09-03T04:32:00;0.53;;;0.30;;
71413;SDS011;59226;53.212;5.728;2022-09-03T04:34:44;1.13;;;0.30;;
71413;SDS011;59226;53.212;5.728;2022-09-03T04:37:09;0.53;;;0.37;;
71413;SDS011;59226;53.212;5.728;2022-09-03T04:39:34;0.70;;;0.33;;
71413;SDS011;59226;53.212;5.728;2022-09-03T04:42:00;0.83;;;0.40;;
71413;SDS011;59226;53.212;5.728;2022-09-03T04:44:25;3.40;;;0.40;;
71413;SDS011;59226;53.212;5.728;2022-09-03T04:46:50;0.90;;;0.40;;
71413;SDS011;59226;53.212;5.728;2022-09-03T04:49:17;1.27;;;0.50;;
71413;SDS011;59226;53.212;5.728;2022-09-03T04:51:42;0.50;;;0.23;;
71413;SDS011;59226;53.212;5.728;2022-09-03T04:54:08;1.07;;;0.33;;
71413;SDS011;59226;53.212;5.728;2022-09-03T04:56:34;1.33;;;0.50;;
71413;SDS011;59226;53.212;5.728;2022-09-03T04:59:03;1.02;;;0.30;;
71413;SDS011;59226;53.212;5.728;2022-09-03T05:01:30;1.53;;;0.50;;
71413;SDS011;59226;53.212;5.728;2022-09-03T05:03:56;0.70;;;0.40;;
71413;SDS011;59226;53.212;5.728;2022-09-03T05:06:22;0.57;;;0.30;;
71413;SDS011;59226;53.212;5.728;2022-09-03T05:08:49;0.70;;;0.50;;
71413;SDS011;59226;53.212;5.728;2022-09-03T05:11:15;0.73;;;0.40;;
71413;SDS011;59226;53.212;5.728;2022-09-03T05:13:41;1.45;;;0.40;;
71413;SDS011;59226;53.212;5.728;2022-09-03T05:16:07;0.97;;;0.50;;
71413;SDS011;59226;53.212;5.728;2022-09-03T05:18:33;0.57;;;0.32;;
71413;SDS011;59226;53.212;5.728;2022-09-03T05:21:02;1.00;;;0.30;;
71413;SDS011;59226;53.212;5.728;2022-09-03T05:23:28;1.80;;;0.40;;
71413;SDS011;59226;53.212;5.728;2022-09-03T05:25:58;1.42;;;0.52;;
71413;SDS011;59226;53.212;5.728;2022-09-03T05:28:27;3.15;;;0.50;;
71413;SDS011;59226;53.212;5.728;2022-09-03T05:31:00;0.50;;;0.40;;
71413;SDS011;59226;53.212;5.728;2022-09-03T05:33:25;1.17;;;0.50;;
71413;SDS011;59226;53.212;5.728;2022-09-03T05:35:52;0.55;;;0.20;;
71413;SDS011;59226;53.212;5.728;2022-09-03T05:38:17;1.23;;;0.63;;
71413;SDS011;59226;53.212;5.728;2022-09-03T05:40:43;0.90;;;0.40;;
71413;SDS011;59226;53.212;5.728;2022-09-03T05:43:08;1.03;;;0.40;;
71413;SDS011;59226;53.212;5.728;2022-09-03T05:45:33;0.70;;;0.40;;
71413;SDS011;59226;53.212;5.728;2022-09-03T05:47:59;0.90;;;0.50;;
71413;SDS011;59226;53.212;5.728;2022-09-03T05:50:24;3.53;;;0.40;;
71413;SDS011;59226;53.212;5.728;2022-09-03T05:52:49;0.97;;;0.40;;
71413;SDS011;59226;53.212;5.728;2022-09-03T05:55:15;2.13;;;0.77;;
71413;SDS011;59226;53.212;5.728;2022-09-03T05:57:40;0.50;;;0.30;;
71413;SDS011;59226;53.212;5.728;2022-09-03T06:00:07;1.70;;;0.63;;
71413;SDS011;59226;53.212;5.728;2022-09-03T06:02:34;1.02;;;0.30;;
71413;SDS011;59226;53.212;5.728;2022-09-03T06:04:59;2.73;;;0.60;;
71413;SDS011;59226;53.212;5.728;2022-09-03T06:07:25;0.80;;;0.37;;
71413;SDS011;59226;53.212;5.728;2022-09-03T06:09:51;0.68;;;0.40;;
71413;SDS011;59226;53.212;5.728;2022-09-03T06:12:16;0.73;;;0.37;;
71413;SDS011;59226;53.212;5.728;2022-09-03T06:14:41;0.87;;;0.40;;
71413;SDS011;59226;53.212;5.728;2022-09-03T06:17:06;0.73;;;0.40;;
71413;SDS011;59226;53.212;5.728;2022-09-03T06:19:35;1.73;;;0.60;;
71413;SDS011;59226;53.212;5.728;2022-09-03T06:22:00;0.53;;;0.33;;
71413;SDS011;59226;53.212;5.728;2022-09-03T06:24:25;0.80;;;0.40;;
71413;SDS011;59226;53.212;5.728;2022-09-03T06:26:51;1.73;;;0.70;;
71413;SDS011;59226;53.212;5.728;2022-09-03T06:29:17;2.08;;;0.93;;
71413;SDS011;59226;53.212;5.728;2022-09-03T06:31:43;1.13;;;0.40;;
71413;SDS011;59226;53.212;5.728;2022-09-03T06:34:09;7.80;;;0.57;;
71413;SDS011;59226;53.212;5.728;2022-09-03T06:36:34;0.63;;;0.30;;
71413;SDS011;59226;53.212;5.728;2022-09-03T06:38:59;0.97;;;0.50;;
71413;SDS011;59226;53.212;5.728;2022-09-03T06:41:26;3.20;;;0.60;;
71413;SDS011;59226;53.212;5.728;2022-09-03T06:43:52;6.60;;;0.43;;
71413;SDS011;59226;53.212;5.728;2022-09-03T06:46:19;2.60;;;0.40;;
71413;SDS011;59226;53.212;5.728;2022-09-03T06:48:45;1.10;;;0.60;;
71413;SDS011;59226;53.212;5.728;2022-09-03T06:51:15;1.35;;;0.45;;
71413;SDS011;59226;53.212;5.728;2022-09-03T06:53:41;1.33;;;0.60;;
71413;SDS011;59226;53.212;5.728;2022-09-03T06:56:08;0.80;;;0.45;;
71413;SDS011;59226;53.212;5.728;2022-09-03T06:58:34;3.80;;;0.50;;
71413;SDS011;59226;53.212;5.728;2022-09-03T07:01:12;1.48;;;0.60;;
71413;SDS011;59226;53.212;5.728;2022-09-03T07:03:38;1.15;;;0.60;;
71413;SDS011;59226;53.212;5.728;2022-09-03T07:06:05;1.17;;;0.43;;
71413;SDS011;59226;53.212;5.728;2022-09-03T07:08:30;1.02;;;0.50;;
71413;SDS011;59226;53.212;5.728;2022-09-03T07:10:57;0.68;;;0.30;;
71413;SDS011;59226;53.212;5.728;2022-09-03T07:13:23;0.95;;;0.50;;
71413;SDS011;59226;53.212;5.728;2022-09-03T07:15:57;1.48;;;0.50;;
71413;SDS011;59226;53.212;5.728;2022-09-03T07:18:22;2.17;;;0.77;;
71413;SDS011;59226;53.212;5.728;2022-09-03T07:20:47;1.70;;;0.70;;
71413;SDS011;59226;53.212;5.728;2022-09-03T07:23:12;1.53;;;1.00;;
71413;SDS011;59226;53.212;5.728;2022-09-03T07:25:40;0.93;;;0.47;;
71413;SDS011;59226;53.212;5.728;2022-09-03T07:28:05;2.20;;;0.70;;
71413;SDS011;59226;53.212;5.728;2022-09-03T07:30:31;0.60;;;0.30;;
71413;SDS011;59226;53.212;5.728;2022-09-03T07:32:56;0.90;;;0.40;;
71413;SDS011;59226;53.212;5.728;2022-09-03T07:35:25;4.15;;;0.52;;
71413;SDS011;59226;53.212;5.728;2022-09-03T07:37:51;3.40;;;0.70;;
71413;SDS011;59226;53.212;5.728;2022-09-03T07:40:16;1.17;;;0.50;;
71413;SDS011;59226;53.212;5.728;2022-09-03T07:42:43;1.25;;;0.50;;
71413;SDS011;59226;53.212;5.728;2022-09-03T07:45:08;0.43;;;0.37;;
71413;SDS011;59226;53.212;5.728;2022-09-03T07:47:35;1.13;;;0.47;;
71413;SDS011;59226;53.212;5.728;2022-09-03T07:50:00;1.83;;;0.75;;
71413;SDS011;59226;53.212;5.728;2022-09-03T07:52:25;1.70;;;0.70;;
71413;SDS011;59226;53.212;5.728;2022-09-03T07:54:50;0.40;;;0.30;;
71413;SDS011;59226;53.212;5.728;2022-09-03T07:57:16;1.67;;;0.60;;
71413;SDS011;59226;53.212;5.728;2022-09-03T07:59:41;1.40;;;0.60;;
71413;SDS011;59226;53.212;5.728;2022-09-03T08:02:06;1.13;;;0.50;;
71413;SDS011;59226;53.212;5.728;2022-09-03T08:04:31;1.77;;;0.60;;
71413;SDS011;59226;53.212;5.728;2022-09-03T08:06:57;1.58;;;0.70;;
71413;SDS011;59226;53.212;5.728;2022-09-03T08:09:24;1.43;;;0.60;;
71413;SDS011;59226;53.212;5.728;2022-09-03T08:11:49;0.70;;;0.40;;
71413;SDS011;59226;53.212;5.728;2022-09-03T08:14:15;1.50;;;0.70;;
71413;SDS011;59226;53.212;5.728;2022-09-03T08:16:41;1.43;;;0.60;;
71413;SDS011;59226;53.212;5.728;2022-09-03T08:19:07;1.77;;;0.52;;
71413;SDS011;59226;53.212;5.728;2022-09-03T08:21:32;1.55;;;0.47;;
71413;SDS011;59226;53.212;5.728;2022-09-03T08:23:58;0.87;;;0.40;;
71413;SDS011;59226;53.212;5.728;2022-09-03T08:26:27;1.00;;;0.50;;
71413;SDS011;59226;53.212;5.728;2022-09-03T08:28:52;3.47;;;0.70;;
71413;SDS011;59226;53.212;5.728;2022-09-03T08:31:18;1.10;;;0.50;;
71413;SDS011;59226;53.212;5.728;2022-09-03T08:33:45;0.70;;;0.50;;
71413;SDS011;59226;53.212;5.728;2022-09-03T08:36:15;0.85;;;0.47;;
71413;SDS011;59226;53.212;5.728;2022-09-03T08:38:41;1.10;;;0.60;;
71413;SDS011;59226;53.212;5.728;2022-09-03T08:41:10;1.77;;;0.75;;
71413;SDS011;59226;53.212;5.728;2022-09-03T08:46:24;4.65;;;0.50;;
71413;SDS011;59226;53.212;5.728;2022-09-03T08:48:51;1.20;;;0.65;;
71413;SDS011;59226;53.212;5.728;2022-09-03T08:51:16;1.17;;;0.60;;
71413;SDS011;59226;53.212;5.728;2022-09-03T08:53:45;1.30;;;0.60;;
71413;SDS011;59226;53.212;5.728;2022-09-03T08:56:13;0.83;;;0.33;;
71413;SDS011;59226;53.212;5.728;2022-09-03T08:58:43;1.20;;;0.57;;
71413;SDS011;59226;53.212;5.728;2022-09-03T09:08:58;0.97;;;0.50;;
71413;SDS011;59226;53.212;5.728;2022-09-03T09:19:41;0.75;;;0.50;;
71413;SDS011;59226;53.212;5.728;2022-09-03T09:22:12;2.20;;;0.70;;
71413;SDS011;59226;53.212;5.728;2022-09-03T09:24:47;1.15;;;0.60;;
71413;SDS011;59226;53.212;5.728;2022-09-03T09:27:14;1.13;;;0.50;;
71413;SDS011;59226;53.212;5.728;2022-09-03T09:29:45;1.17;;;0.40;;
71413;SDS011;59226;53.212;5.728;2022-09-03T09:32:11;1.38;;;0.65;;
71413;SDS011;59226;53.212;5.728;2022-09-03T09:34:38;2.70;;;0.50;;
71413;SDS011;59226;53.212;5.728;2022-09-03T09:37:06;2.45;;;0.80;;
71413;SDS011;59226;53.212;5.728;2022-09-03T09:39:33;1.33;;;0.70;;
71413;SDS011;59226;53.212;5.728;2022-09-03T09:42:06;1.50;;;0.57;;
71413;SDS011;59226;53.212;5.728;2022-09-03T09:44:35;1.73;;;0.60;;
71413;SDS011;59226;53.212;5.728;2022-09-03T09:47:09;2.33;;;0.80;;
71413;SDS011;59226;53.212;5.728;2022-09-03T09:49:36;0.98;;;0.50;;
71413;SDS011;59226;53.212;5.728;2022-09-03T09:52:04;0.90;;;0.47;;
71413;SDS011;59226;53.212;5.728;2022-09-03T09:54:29;1.07;;;0.50;;
71413;SDS011;59226;53.212;5.728;2022-09-03T09:59:43;1.90;;;0.73;;
71413;SDS011;59226;53.212;5.728;2022-09-03T10:02:23;1.73;;;0.80;;
71413;SDS011;59226;53.212;5.728;2022-09-03T10:04:53;1.25;;;0.40;;
71413;SDS011;59226;53.212;5.728;2022-09-03T10:09:45;1.10;;;0.50;;
71413;SDS011;59226;53.212;5.728;2022-09-03T10:12:23;0.68;;;0.40;;
71413;SDS011;59226;53.212;5.728;2022-09-03T10:14:57;6.13;;;0.60;;
71413;SDS011;59226;53.212;5.728;2022-09-03T10:17:46;1.43;;;0.60;;
71413;SDS011;59226;53.212;5.728;2022-09-03T10:20:14;3.28;;;0.60;;
71413;SDS011;59226;53.212;5.728;2022-09-03T10:22:55;0.88;;;0.32;;
71413;SDS011;59226;53.212;5.728;2022-09-03T10:25:21;1.60;;;0.60;;
71413;SDS011;59226;53.212;5.728;2022-09-03T10:27:49;0.82;;;0.50;;
71413;SDS011;59226;53.212;5.728;2022-09-03T10:30:16;1.63;;;0.60;;
71413;SDS011;59226;53.212;5.728;2022-09-03T10:35:27;2.35;;;0.90;;
71413;SDS011;59226;53.212;5.728;2022-09-03T10:37:54;1.77;;;0.85;;
71413;SDS011;59226;53.212;5.728;2022-09-03T10:40:32;1.85;;;0.60;;
71413;SDS011;59226;53.212;5.728;2022-09-03T11:01:09;2.47;;;0.57;;
71413;SDS011;59226;53.212;5.728;2022-09-03T11:06:07;1.63;;;0.53;;
71413;SDS011;59226;53.212;5.728;2022-09-03T11:08:36;1.08;;;0.50;;
71413;SDS011;59226;53.212;5.728;2022-09-03T11:11:23;1.13;;;0.60;;
71413;SDS011;59226;53.212;5.728;2022-09-03T11:13:55;1.67;;;0.82;;
71413;SDS011;59226;53.212;5.728;2022-09-03T11:16:29;7.33;;;0.80;;
71413;SDS011;59226;53.212;5.728;2022-09-03T11:19:03;2.70;;;0.70;;
71413;SDS011;59226;53.212;5.728;2022-09-03T11:21:29;1.58;;;0.70;;
71413;SDS011;59226;53.212;5.728;2022-09-03T11:24:11;2.67;;;0.70;;
71413;SDS011;59226;53.212;5.728;2022-09-03T11:26:37;2.30;;;0.70;;
71413;SDS011;59226;53.212;5.728;2022-09-03T11:34:11;0.95;;;0.52;;
71413;SDS011;59226;53.212;5.728;2022-09-03T11:36:38;1.02;;;0.50;;
71413;SDS011;59226;53.212;5.728;2022-09-03T11:41:58;1.98;;;0.60;;
71413;SDS011;59226;53.212;5.728;2022-09-03T11:44:23;1.45;;;0.65;;
71413;SDS011;59226;53.212;5.728;2022-09-03T11:46:59;2.45;;;0.80;;
71413;SDS011;59226;53.212;5.728;2022-09-03T11:49:29;1.10;;;0.50;;
71413;SDS011;59226;53.212;5.728;2022-09-03T11:52:03;1.23;;;0.67;;
71413;SDS011;59226;53.212;5.728;2022-09-03T11:54:41;1.08;;;0.50;;
71413;SDS011;59226;53.212;5.728;2022-09-03T11:57:11;1.25;;;0.70;;
71413;SDS011;59226;53.212;5.728;2022-09-03T11:59:37;1.13;;;0.63;;
71413;SDS011;59226;53.212;5.728;2022-09-03T12:02:06;1.15;;;0.60;;
71413;SDS011;59226;53.212;5.728;2022-09-03T12:12:36;1.17;;;0.47;;
71413;SDS011;59226;53.212;5.728;2022-09-03T12:17:33;2.75;;;0.70;;
71413;SDS011;59226;53.212;5.728;2022-09-03T12:19:59;1.52;;;0.68;;
71413;SDS011;59226;53.212;5.728;2022-09-03T12:22:25;2.00;;;0.80;;
71413;SDS011;59226;53.212;5.728;2022-09-03T12:24:52;1.50;;;0.70;;
71413;SDS011;59226;53.212;5.728;2022-09-03T12:27:19;3.67;;;0.87;;
71413;SDS011;59226;53.212;5.728;2022-09-03T12:32:22;5.35;;;0.77;;
71413;SDS011;59226;53.212;5.728;2022-09-03T12:34:47;1.00;;;0.60;;
71413;SDS011;59226;53.212;5.728;2022-09-03T12:37:18;1.40;;;0.80;;
71413;SDS011;59226;53.212;5.728;2022-09-03T12:39:49;4.35;;;1.13;;
71413;SDS011;59226;53.212;5.728;2022-09-03T12:42:17;1.20;;;0.80;;
71413;SDS011;59226;53.212;5.728;2022-09-03T12:44:44;0.88;;;0.50;;
71413;SDS011;59226;53.212;5.728;2022-09-03T12:47:16;1.50;;;0.73;;
71413;SDS011;59226;53.212;5.728;2022-09-03T12:49:43;1.52;;;0.65;;
71413;SDS011;59226;53.212;5.728;2022-09-03T12:57:16;3.33;;;0.70;;
71413;SDS011;59226;53.212;5.728;2022-09-03T12:59:43;2.30;;;0.98;;
71413;SDS011;59226;53.212;5.728;2022-09-03T13:02:13;1.07;;;0.60;;
71413;SDS011;59226;53.212;5.728;2022-09-03T13:04:41;5.82;;;0.90;;
71413;SDS011;59226;53.212;5.728;2022-09-03T13:07:10;1.57;;;0.60;;
71413;SDS011;59226;53.212;5.728;2022-09-03T13:09:36;1.17;;;0.70;;
71413;SDS011;59226;53.212;5.728;2022-09-03T13:12:02;1.10;;;0.68;;
71413;SDS011;59226;53.212;5.728;2022-09-03T13:14:44;1.30;;;0.80;;
71413;SDS011;59226;53.212;5.728;2022-09-03T13:20:32;2.10;;;1.13;;
71413;SDS011;59226;53.212;5.728;2022-09-03T13:25:54;1.30;;;0.70;;
71413;SDS011;59226;53.212;5.728;2022-09-03T13:33:52;3.53;;;0.87;;
71413;SDS011;59226;53.212;5.728;2022-09-03T13:36:19;0.65;;;0.47;;
71413;SDS011;59226;53.212;5.728;2022-09-03T13:38:51;1.05;;;0.70;;
71413;SDS011;59226;53.212;5.728;2022-09-03T13:41:23;2.45;;;0.73;;
71413;SDS011;59226;53.212;5.728;2022-09-03T13:46:39;1.40;;;0.80;;
71413;SDS011;59226;53.212;5.728;2022-09-03T13:49:17;1.60;;;0.63;;
71413;SDS011;59226;53.212;5.728;2022-09-03T13:52:04;1.15;;;0.73;;
71413;SDS011;59226;53.212;5.728;2022-09-03T13:54:41;4.22;;;0.70;;
71413;SDS011;59226;53.212;5.728;2022-09-03T13:57:08;1.60;;;0.68;;
71413;SDS011;59226;53.212;5.728;2022-09-03T13:59:49;1.27;;;0.70;;
71413;SDS011;59226;53.212;5.728;2022-09-03T14:07:26;1.15;;;0.63;;
71413;SDS011;59226;53.212;5.728;2022-09-03T14:10:09;0.80;;;0.70;;
71413;SDS011;59226;53.212;5.728;2022-09-03T14:12:44;1.08;;;0.70;;
71413;SDS011;59226;53.212;5.728;2022-09-03T14:15:19;1.65;;;1.02;;
71413;SDS011;59226;53.212;5.728;2022-09-03T14:17:56;1.03;;;0.80;;
71413;SDS011;59226;53.212;5.728;2022-09-03T14:20:30;1.75;;;0.90;;
71413;SDS011;59226;53.212;5.728;2022-09-03T14:25:29;3.50;;;0.85;;
71413;SDS011;59226;53.212;5.728;2022-09-03T14:27:54;1.83;;;1.10;;
71413;SDS011;59226;53.212;5.728;2022-09-03T14:30:42;2.17;;;1.10;;
71413;SDS011;59226;53.212;5.728;2022-09-03T14:35:50;2.67;;;1.20;;
71413;SDS011;59226;53.212;5.728;2022-09-03T14:44:01;1.73;;;0.90;;
71413;SDS011;59226;53.212;5.728;2022-09-03T15:00:03;1.05;;;0.80;;
71413;SDS011;59226;53.212;5.728;2022-09-03T15:05:26;1.75;;;0.88;;
71413;SDS011;59226;53.212;5.728;2022-09-03T15:08:05;1.65;;;0.90;;
71413;SDS011;59226;53.212;5.728;2022-09-03T15:10:44;1.58;;;0.95;;
71413;SDS011;59226;53.212;5.728;2022-09-03T15:36:53;1.83;;;1.20;;
71413;SDS011;59226;53.212;5.728;2022-09-03T15:39:21;1.98;;;1.30;;
71413;SDS011;59226;53.212;5.728;2022-09-03T15:44:44;2.27;;;1.17;;
71413;SDS011;59226;53.212;5.728;2022-09-03T15:47:11;2.55;;;1.40;;
71413;SDS011;59226;53.212;5.728;2022-09-03T15:52:36;1.75;;;1.25;;
71413;SDS011;59226;53.212;5.728;2022-09-03T16:00:11;1.55;;;0.93;;
71413;SDS011;59226;53.212;5.728;2022-09-03T16:05:24;1.60;;;1.10;;
71413;SDS011;59226;53.212;5.728;2022-09-03T16:08:04;1.67;;;1.30;;
71413;SDS011;59226;53.212;5.728;2022-09-03T16:10:45;1.87;;;1.30;;
71413;SDS011;59226;53.212;5.728;2022-09-03T16:25:51;2.33;;;1.17;;
71413;SDS011;59226;53.212;5.728;2022-09-03T16:36:35;2.08;;;0.90;;
71413;SDS011;59226;53.212;5.728;2022-09-03T16:39:07;1.40;;;0.90;;
71413;SDS011;59226;53.212;5.728;2022-09-03T16:41:40;2.65;;;0.88;;
71413;SDS011;59226;53.212;5.728;2022-09-03T16:46:46;2.08;;;0.77;;
71413;SDS011;59226;53.212;5.728;2022-09-03T16:54:16;4.63;;;1.00;;
71413;SDS011;59226;53.212;5.728;2022-09-03T17:04:17;1.43;;;0.90;;
71413;SDS011;59226;53.212;5.728;2022-09-03T17:14:24;3.35;;;1.58;;
71413;SDS011;59226;53.212;5.728;2022-09-03T17:17:01;2.28;;;1.25;;
71413;SDS011;59226;53.212;5.728;2022-09-03T17:19:38;2.27;;;0.97;;
71413;SDS011;59226;53.212;5.728;2022-09-03T17:24:53;1.55;;;0.93;;
71413;SDS011;59226;53.212;5.728;2022-09-03T17:27:38;4.70;;;0.80;;
71413;SDS011;59226;53.212;5.728;2022-09-03T17:30:10;0.80;;;0.60;;
71413;SDS011;59226;53.212;5.728;2022-09-03T17:35:28;3.53;;;0.80;;
71413;SDS011;59226;53.212;5.728;2022-09-03T17:45:44;3.10;;;1.00;;
71413;SDS011;59226;53.212;5.728;2022-09-03T17:50:50;3.77;;;0.80;;
71413;SDS011;59226;53.212;5.728;2022-09-03T17:53:19;1.35;;;0.80;;
71413;SDS011;59226;53.212;5.728;2022-09-03T17:56:00;1.38;;;0.73;;
71413;SDS011;59226;53.212;5.728;2022-09-03T18:03:48;1.83;;;0.70;;
71413;SDS011;59226;53.212;5.728;2022-09-03T18:06:34;1.40;;;0.70;;
71413;SDS011;59226;53.212;5.728;2022-09-03T18:09:02;1.80;;;0.60;;
71413;SDS011;59226;53.212;5.728;2022-09-03T18:16:46;3.30;;;0.70;;
71413;SDS011;59226;53.212;5.728;2022-09-03T18:19:14;1.27;;;0.52;;
71413;SDS011;59226;53.212;5.728;2022-09-03T18:21:43;1.33;;;0.70;;
71413;SDS011;59226;53.212;5.728;2022-09-03T18:24:32;1.10;;;0.60;;
71413;SDS011;59226;53.212;5.728;2022-09-03T18:30:11;1.77;;;0.80;;
71413;SDS011;59226;53.212;5.728;2022-09-03T18:32:56;0.93;;;0.68;;
71413;SDS011;59226;53.212;5.728;2022-09-03T18:35:42;2.15;;;0.90;;
71413;SDS011;59226;53.212;5.728;2022-09-03T18:38:27;3.78;;;1.15;;
71413;SDS011;59226;53.212;5.728;2022-09-03T18:44:01;2.40;;;1.10;;
71413;SDS011;59226;53.212;5.728;2022-09-03T18:49:35;2.00;;;0.70;;
71413;SDS011;59226;53.212;5.728;2022-09-03T18:52:31;1.63;;;0.70;;
71413;SDS011;59226;53.212;5.728;2022-09-03T19:01:10;4.13;;;0.90;;
71413;SDS011;59226;53.212;5.728;2022-09-03T19:07:17;3.58;;;1.05;;
71413;SDS011;59226;53.212;5.728;2022-09-03T19:15:38;5.45;;;0.82;;
71413;SDS011;59226;53.212;5.728;2022-09-03T19:18:31;2.38;;;0.85;;
71413;SDS011;59226;53.212;5.728;2022-09-03T19:24:04;2.22;;;0.70;;
71413;SDS011;59226;53.212;5.728;2022-09-03T19:27:06;0.97;;;0.50;;
71413;SDS011;59226;53.212;5.728;2022-09-03T19:32:45;5.03;;;1.00;;
71413;SDS011;59226;53.212;5.728;2022-09-03T19:35:37;2.53;;;0.90;;
71413;SDS011;59226;53.212;5.728;2022-09-03T19:41:24;2.33;;;0.87;;
71413;SDS011;59226;53.212;5.728;2022-09-03T19:46:57;2.65;;;0.98;;
71413;SDS011;59226;53.212;5.728;2022-09-03T19:52:54;1.77;;;1.02;;
71413;SDS011;59226;53.212;5.728;2022-09-03T19:55:41;2.93;;;0.97;;
71413;SDS011;59226;53.212;5.728;2022-09-03T19:58:26;1.50;;;0.68;;
71413;SDS011;59226;53.212;5.728;2022-09-03T20:01:12;2.22;;;1.10;;
71413;SDS011;59226;53.212;5.728;2022-09-03T20:03:57;1.77;;;0.88;;
71413;SDS011;59226;53.212;5.728;2022-09-03T20:06:42;1.40;;;0.85;;
71413;SDS011;59226;53.212;5.728;2022-09-03T20:09:28;1.83;;;0.73;;
71413;SDS011;59226;53.212;5.728;2022-09-03T20:12:11;2.17;;;0.77;;
71413;SDS011;59226;53.212;5.728;2022-09-03T20:14:37;2.05;;;0.80;;
71413;SDS011;59226;53.212;5.728;2022-09-03T20:29:51;1.17;;;0.60;;
71413;SDS011;59226;53.212;5.728;2022-09-03T20:37:40;1.90;;;0.60;;
71413;SDS011;59226;53.212;5.728;2022-09-03T20:48:14;2.10;;;0.60;;
71413;SDS011;59226;53.212;5.728;2022-09-03T20:50:51;3.13;;;0.90;;